Time;durP1;ratioP1;P1;durP2;ratioP2;P2;SDS_P1;SDS_P2;PMS_P1;PMS_P2;Temp;Humidity;BMP_temperature;BMP_pressure;BME280_temperature;BME280_humidity;BME280_pressure;Samples;Min_cycle;Max_cycle;Signal;HPM_P1;HPM_P2
2024/04/11 00:02:19;;;;;;;4.55;0.90;;;13.20;99.90;;;;;;5487718;26;19994;-41
2024/04/11 00:04:44;;;;;;;1.92;0.60;;;13.20;99.90;;;;;;5489455;26;20315;-42
2024/04/11 00:07:10;;;;;;;1.48;0.60;;;13.10;99.90;;;;;;5489690;26;19990;-39
2024/04/11 00:09:36;;;;;;;3.17;1.02;;;13.10;99.90;;;;;;5489536;26;20320;-50
2024/04/11 00:12:02;;;;;;;4.22;0.90;;;13.20;99.90;;;;;;5489555;26;20001;-40
2024/04/11 00:14:29;;;;;;;6.57;0.90;;;13.20;99.90;;;;;;5489594;26;20384;-39
2024/04/11 00:16:54;;;;;;;1.48;0.98;;;13.20;99.90;;;;;;5489701;26;20528;-42
2024/04/11 00:19:20;;;;;;;4.53;0.85;;;13.20;99.90;;;;;;5487064;26;20029;-44
2024/04/11 00:21:48;;;;;;;2.55;1.08;;;13.20;99.90;;;;;;5489368;26;20462;-41
2024/04/11 00:24:14;;;;;;;2.65;0.68;;;13.20;99.90;;;;;;5487846;26;19994;-41
2024/04/11 00:26:40;;;;;;;5.32;0.57;;;13.30;99.90;;;;;;5488983;26;19994;-39
2024/04/11 00:29:09;;;;;;;2.05;0.80;;;13.30;99.90;;;;;;5489141;26;19998;-42
2024/04/11 00:31:34;;;;;;;9.00;0.93;;;13.20;99.90;;;;;;5489266;26;20053;-40
2024/04/11 00:34:13;;;;;;;4.10;0.80;;;13.20;99.90;;;;;;5489140;26;20071;-44
2024/04/11 00:36:42;;;;;;;1.67;0.73;;;13.20;99.90;;;;;;5488879;26;19994;-42
2024/04/11 00:39:09;;;;;;;2.63;0.70;;;13.30;99.90;;;;;;5489292;26;20101;-43
2024/04/11 00:41:38;;;;;;;6.10;1.00;;;13.30;99.90;;;;;;5488986;26;20025;-40
2024/04/11 00:44:04;;;;;;;2.38;0.60;;;13.20;99.90;;;;;;5488751;26;19998;-38
2024/04/11 00:46:29;;;;;;;6.00;0.90;;;13.20;99.90;;;;;;5487028;26;20466;-70
2024/04/11 00:48:56;;;;;;;3.38;1.40;;;13.30;99.90;;;;;;5488828;26;19995;-42
2024/04/11 00:51:22;;;;;;;2.80;0.77;;;13.30;99.90;;;;;;5488950;26;20008;-39
2024/04/11 00:53:51;;;;;;;2.78;0.57;;;13.30;99.90;;;;;;5488907;26;20392;-39
2024/04/11 00:56:17;;;;;;;1.92;1.13;;;13.30;99.90;;;;;;5488837;26;19994;-39
2024/04/11 00:58:44;;;;;;;6.18;0.65;;;13.30;99.90;;;;;;5489602;26;20435;-40
2024/04/11 01:01:09;;;;;;;6.80;0.55;;;13.30;99.90;;;;;;5488430;26;20469;-37
2024/04/11 01:03:35;;;;;;;1.98;0.73;;;13.30;99.90;;;;;;5457843;26;19999;-48
2024/04/11 01:06:01;;;;;;;4.78;0.65;;;13.30;99.90;;;;;;5463241;26;20458;-63
2024/04/11 01:08:27;;;;;;;7.82;1.02;;;13.30;99.90;;;;;;5488350;26;20483;-51
2024/04/11 01:10:52;;;;;;;2.67;0.70;;;13.30;99.90;;;;;;5488879;26;20457;-55
2024/04/11 01:13:20;;;;;;;2.67;0.73;;;13.30;99.90;;;;;;5488349;26;19997;-51
2024/04/11 01:15:47;;;;;;;5.05;1.80;;;13.30;99.90;;;;;;5488403;26;20005;-54
2024/04/11 01:18:13;;;;;;;2.90;0.67;;;13.30;99.90;;;;;;5488055;26;20442;-51
2024/04/11 01:20:38;;;;;;;12.50;1.25;;;13.30;99.90;;;;;;5488143;26;20013;-48
2024/04/11 01:23:07;;;;;;;8.65;1.65;;;13.20;99.90;;;;;;5488180;26;20013;-54
2024/04/11 01:25:33;;;;;;;6.50;1.73;;;13.30;99.90;;;;;;5488034;26;20365;-52
2024/04/11 01:27:59;;;;;;;7.43;1.08;;;13.30;99.90;;;;;;5488226;26;20407;-53
2024/04/11 01:30:25;;;;;;;8.40;1.23;;;13.20;99.90;;;;;;5486294;26;20006;-65
2024/04/11 01:32:59;;;;;;;3.58;0.73;;;13.20;99.90;;;;;;5488162;26;20012;-54
2024/04/11 01:35:31;;;;;;;2.45;0.90;;;13.20;99.90;;;;;;5487911;26;20002;-53
2024/04/11 01:37:58;;;;;;;3.42;1.42;;;13.20;99.90;;;;;;5488063;26;20006;-54
2024/04/11 01:40:25;;;;;;;1.10;0.60;;;13.20;99.90;;;;;;5488091;26;19998;-53
2024/04/11 01:42:52;;;;;;;8.25;1.38;;;13.20;99.90;;;;;;5487999;26;20350;-53
2024/04/11 01:45:17;;;;;;;1.67;0.80;;;13.20;99.90;;;;;;5487685;26;19994;-52
2024/04/11 01:47:43;;;;;;;3.63;1.02;;;13.20;99.90;;;;;;5487951;26;20342;-50
2024/04/11 01:50:09;;;;;;;8.57;0.88;;;13.30;99.90;;;;;;5485948;26;20058;-51
2024/04/11 01:52:35;;;;;;;1.58;0.70;;;13.30;99.90;;;;;;5487776;26;20006;-54
2024/04/11 01:55:00;;;;;;;3.17;0.90;;;13.30;99.90;;;;;;5487622;26;19994;-52
2024/04/11 01:57:27;;;;;;;12.40;0.98;;;13.30;99.90;;;;;;5487583;26;19998;-52
2024/04/11 01:59:53;;;;;;;2.95;1.27;;;13.30;99.90;;;;;;5487496;26;20002;-55
2024/04/11 02:02:19;;;;;;;4.40;1.00;;;13.30;99.90;;;;;;5487416;26;20066;-53
2024/04/11 02:04:45;;;;;;;4.10;1.25;;;13.30;99.90;;;;;;5487469;26;20462;-52
2024/04/11 02:07:11;;;;;;;6.93;1.58;;;13.30;99.90;;;;;;5487682;26;20005;-53
2024/04/11 02:09:36;;;;;;;7.30;1.58;;;13.30;99.90;;;;;;5487327;26;20446;-54
2024/04/11 02:12:02;;;;;;;6.90;1.40;;;13.30;99.90;;;;;;5487515;26;20009;-53
2024/04/11 02:14:29;;;;;;;6.65;0.93;;;13.20;99.90;;;;;;5487388;26;20009;-48
2024/04/11 02:16:56;;;;;;;6.22;1.13;;;13.30;99.90;;;;;;5487704;26;20022;-49
2024/04/11 02:19:21;;;;;;;6.07;1.08;;;13.30;99.90;;;;;;5486997;26;19998;-57
2024/04/11 02:21:48;;;;;;;6.38;1.20;;;13.30;99.90;;;;;;5487147;26;20009;-54
2024/04/11 02:24:17;;;;;;;3.03;0.98;;;13.30;99.90;;;;;;5487613;26;20455;-51
2024/04/11 02:26:47;;;;;;;5.47;0.98;;;13.30;99.90;;;;;;5488955;26;20069;-54
2024/04/11 02:29:15;;;;;;;10.90;1.25;;;13.40;99.90;;;;;;5490870;26;20009;-49
2024/04/11 02:31:43;;;;;;;4.18;0.75;;;13.40;99.90;;;;;;5490793;26;20016;-57
2024/04/11 02:34:09;;;;;;;4.05;1.30;;;13.30;99.90;;;;;;5489073;26;20010;-51
2024/04/11 02:36:35;;;;;;;9.35;1.27;;;13.40;99.90;;;;;;5490693;26;20034;-48
2024/04/11 02:39:02;;;;;;;6.35;1.65;;;13.40;99.90;;;;;;5490740;26;20005;-52
2024/04/11 02:41:28;;;;;;;7.03;1.05;;;13.40;99.90;;;;;;5490661;26;19994;-51
2024/04/11 02:43:57;;;;;;;2.17;1.15;;;13.50;99.90;;;;;;5490851;26;20339;-53
2024/04/11 02:46:25;;;;;;;2.22;0.90;;;13.60;99.90;;;;;;5490653;26;20022;-52
2024/04/11 02:48:51;;;;;;;2.20;0.70;;;13.50;99.90;;;;;;5488929;26;19998;-53
2024/04/11 02:51:22;;;;;;;6.28;1.02;;;13.50;99.90;;;;;;5490580;26;20010;-52
2024/04/11 02:53:48;;;;;;;7.22;1.23;;;13.50;99.90;;;;;;5490579;26;19998;-50
2024/04/11 02:56:14;;;;;;;4.18;1.10;;;13.50;99.90;;;;;;5490607;26;19998;-52
2024/04/11 02:58:40;;;;;;;9.07;0.93;;;13.50;99.90;;;;;;5490324;26;19999;-53
2024/04/11 03:01:08;;;;;;;4.38;0.95;;;13.50;99.90;;;;;;5490696;26;20343;-51
2024/04/11 03:03:34;;;;;;;8.52;0.93;;;13.50;99.90;;;;;;5490315;26;20005;-54
2024/04/11 03:06:17;;;;;;;8.02;1.30;;;13.50;99.90;;;;;;5487870;26;19994;-55
2024/04/11 03:08:43;;;;;;;6.80;0.95;;;13.50;99.90;;;;;;5490406;26;20447;-40
2024/04/11 03:11:11;;;;;;;2.03;1.10;;;13.50;99.90;;;;;;5488465;26;20007;-64
2024/04/11 03:13:40;;;;;;;8.95;1.25;;;13.50;99.90;;;;;;5490345;26;20005;-73
2024/04/11 03:16:11;;;;;;;7.93;1.02;;;13.50;99.90;;;;;;5490174;26;20462;-40
2024/04/11 03:18:39;;;;;;;6.03;1.92;;;13.50;99.90;;;;;;5485249;26;20084;-40
2024/04/11 03:21:05;;;;;;;7.38;1.15;;;13.50;99.90;;;;;;5474528;26;20034;-47
2024/04/11 03:23:31;;;;;;;4.63;1.05;;;13.50;99.90;;;;;;5490198;26;19994;-39
2024/04/11 03:25:58;;;;;;;3.85;1.20;;;13.40;99.90;;;;;;5490303;26;20004;-51
2024/04/11 03:28:24;;;;;;;9.63;0.85;;;13.50;99.90;;;;;;5490207;26;20009;-54
2024/04/11 03:31:10;;;;;;;8.63;1.88;;;13.40;99.90;;;;;;5489843;26;20461;-53
2024/04/11 03:33:37;;;;;;;6.60;1.20;;;13.40;99.90;;;;;;5490003;26;20450;-53
2024/04/11 03:36:05;;;;;;;2.17;0.88;;;13.40;99.90;;;;;;5490273;26;19998;-52
2024/04/11 03:38:32;;;;;;;3.95;1.00;;;13.40;99.90;;;;;;5489619;26;19994;-54
2024/04/11 03:41:05;;;;;;;4.55;1.88;;;13.40;99.90;;;;;;5489049;26;20494;-53
2024/04/11 03:43:34;;;;;;;5.68;1.50;;;13.30;99.90;;;;;;5489854;26;20002;-54
2024/04/11 03:46:10;;;;;;;6.95;1.40;;;13.30;99.90;;;;;;5489934;26;20066;-54
2024/04/11 03:48:36;;;;;;;4.93;1.13;;;13.40;99.90;;;;;;5489612;26;20002;-54
2024/04/11 03:51:13;;;;;;;6.28;1.50;;;13.40;99.90;;;;;;5489606;26;20489;-50
2024/04/11 03:53:40;;;;;;;8.10;1.30;;;13.40;99.90;;;;;;5489785;26;19994;-55
2024/04/11 03:56:09;;;;;;;3.42;0.73;;;13.40;99.90;;;;;;5489627;26;19995;-53
2024/04/11 03:58:37;;;;;;;5.43;1.15;;;13.40;99.90;;;;;;5489737;26;19998;-52
2024/04/11 04:01:05;;;;;;;10.68;1.30;;;13.40;99.90;;;;;;5489657;26;20034;-54
2024/04/11 04:03:31;;;;;;;7.97;1.50;;;13.40;99.90;;;;;;5489438;26;19994;-52
2024/04/11 04:05:57;;;;;;;11.70;1.33;;;13.30;99.90;;;;;;5489675;26;19998;-54
2024/04/11 04:08:22;;;;;;;5.75;1.05;;;13.40;99.90;;;;;;5489442;26;20465;-54
2024/04/11 04:10:48;;;;;;;5.00;1.05;;;13.40;99.90;;;;;;5487545;26;20010;-52
2024/04/11 04:13:15;;;;;;;2.30;0.85;;;13.30;99.90;;;;;;5489367;26;20396;-62
2024/04/11 04:15:43;;;;;;;8.15;1.38;;;13.30;99.90;;;;;;5489189;26;19998;-54
2024/04/11 04:18:12;;;;;;;2.03;0.85;;;13.30;99.90;;;;;;5489390;26;20103;-50
2024/04/11 04:20:42;;;;;;;3.10;1.00;;;13.30;99.90;;;;;;5488799;26;19998;-54
2024/04/11 04:23:10;;;;;;;2.90;1.10;;;13.30;99.90;;;;;;5489370;26;20017;-57
2024/04/11 04:25:38;;;;;;;6.60;1.90;;;13.30;99.90;;;;;;5489234;26;19998;-50
2024/04/11 04:28:05;;;;;;;3.22;1.02;;;13.30;99.90;;;;;;5489504;26;19994;-52
2024/04/11 04:30:33;;;;;;;6.30;1.02;;;13.30;99.90;;;;;;5488765;26;20025;-48
2024/04/11 04:33:04;;;;;;;3.08;1.05;;;13.30;99.90;;;;;;5489193;26;20308;-52
2024/04/11 04:35:30;;;;;;;1.75;0.90;;;13.30;99.90;;;;;;5488031;26;20013;-41
2024/04/11 04:37:56;;;;;;;8.55;1.10;;;13.30;99.90;;;;;;5487785;26;20006;-41
2024/04/11 04:40:21;;;;;;;8.38;1.10;;;13.30;99.90;;;;;;5488870;26;20024;-40
2024/04/11 04:42:47;;;;;;;7.45;1.35;;;13.30;99.90;;;;;;5489069;26;19994;-40
2024/04/11 04:45:13;;;;;;;3.67;1.15;;;13.30;99.90;;;;;;5488800;26;19994;-38
2024/04/11 04:47:40;;;;;;;3.35;1.20;;;13.30;99.90;;;;;;5488847;26;20334;-40
2024/04/11 04:50:06;;;;;;;4.15;1.10;;;13.30;99.90;;;;;;5487922;26;19998;-48
2024/04/11 04:52:32;;;;;;;6.13;1.77;;;13.30;99.90;;;;;;5488845;26;20445;-40
2024/04/11 04:54:59;;;;;;;14.85;1.67;;;13.30;99.90;;;;;;5486862;26;19998;-41
2024/04/11 04:57:25;;;;;;;2.65;1.15;;;13.30;99.90;;;;;;5486962;26;20514;-41
2024/04/11 04:59:51;;;;;;;5.68;1.25;;;13.30;99.90;;;;;;5488745;26;19994;-39
2024/04/11 05:02:17;;;;;;;7.22;1.70;;;13.20;99.90;;;;;;5488433;26;19994;-69
2024/04/11 05:04:45;;;;;;;4.10;0.95;;;13.30;99.90;;;;;;5488501;26;20008;-39
2024/04/11 05:07:12;;;;;;;6.15;2.10;;;13.20;99.90;;;;;;5488756;26;20023;-37
2024/04/11 05:09:38;;;;;;;4.30;1.10;;;13.20;99.90;;;;;;5488412;26;20315;-40
2024/04/11 05:12:06;;;;;;;3.97;1.38;;;13.20;99.90;;;;;;5486560;26;20455;-40
2024/04/11 05:14:45;;;;;;;3.67;1.70;;;13.20;99.90;;;;;;5488304;26;20006;-45
2024/04/11 05:17:11;;;;;;;6.70;2.22;;;13.10;99.90;;;;;;5488457;26;19994;-38
2024/04/11 05:19:37;;;;;;;5.72;1.48;;;13.00;99.90;;;;;;5472311;26;19999;-39
2024/04/11 05:22:08;;;;;;;8.43;1.77;;;13.00;99.90;;;;;;5456592;26;20067;-40
2024/04/11 05:24:35;;;;;;;2.67;1.58;;;13.00;99.90;;;;;;5488572;26;20013;-40
2024/04/11 05:27:01;;;;;;;4.97;1.77;;;13.00;99.90;;;;;;5488246;26;20442;-39
2024/04/11 05:29:26;;;;;;;9.90;2.00;;;12.90;99.90;;;;;;5488067;26;19995;-38
2024/04/11 05:31:56;;;;;;;1.42;1.30;;;12.90;99.90;;;;;;5488304;26;19994;-40
2024/04/11 05:34:25;;;;;;;7.00;1.70;;;12.90;99.90;;;;;;5488082;26;20439;-39
2024/04/11 05:36:53;;;;;;;4.35;1.73;;;12.90;99.90;;;;;;5486095;26;20361;-41
2024/04/11 05:39:20;;;;;;;3.47;1.50;;;12.90;99.90;;;;;;5487952;26;20018;-41
2024/04/11 05:41:46;;;;;;;5.40;1.30;;;12.90;99.90;;;;;;5485625;26;20010;-41
2024/04/11 05:44:12;;;;;;;9.25;2.00;;;12.90;99.90;;;;;;5486252;26;20351;-75
2024/04/11 05:46:40;;;;;;;3.58;1.63;;;12.80;99.90;;;;;;5488030;26;20425;-51
2024/04/11 05:49:06;;;;;;;5.55;1.95;;;12.80;99.90;;;;;;5487784;26;20446;-54
2024/04/11 05:51:35;;;;;;;6.20;1.95;;;12.90;99.90;;;;;;5488000;26;20009;-51
2024/04/11 05:54:01;;;;;;;5.72;1.83;;;12.90;99.90;;;;;;5488095;26;20473;-56
2024/04/11 05:56:27;;;;;;;5.13;1.70;;;12.90;99.90;;;;;;5485776;26;19998;-57
2024/04/11 05:58:53;;;;;;;12.45;2.38;;;12.80;99.90;;;;;;5487582;26;20013;-55
2024/04/11 06:01:20;;;;;;;9.25;2.15;;;12.80;99.90;;;;;;5490535;26;20358;-52
2024/04/11 06:03:49;;;;;;;8.15;2.20;;;12.80;99.90;;;;;;5491200;26;20014;-54
2024/04/11 06:06:19;;;;;;;6.95;3.17;;;12.80;99.90;;;;;;5489358;26;20030;-54
2024/04/11 06:08:46;;;;;;;4.22;2.08;;;12.80;99.90;;;;;;5489463;26;19994;-55
2024/04/11 06:11:12;;;;;;;7.75;3.78;;;12.80;99.90;;;;;;5489268;26;19995;-54
2024/04/11 06:13:38;;;;;;;5.95;2.60;;;12.80;99.90;;;;;;5491244;26;20039;-54
2024/04/11 06:16:05;;;;;;;6.07;2.35;;;12.80;99.90;;;;;;5491446;26;20067;-55
2024/04/11 06:18:34;;;;;;;5.23;2.10;;;12.80;99.90;;;;;;5491030;26;20006;-53
2024/04/11 06:21:01;;;;;;;4.32;2.40;;;12.80;99.90;;;;;;5491174;26;19998;-55
2024/04/11 06:23:26;;;;;;;4.22;2.90;;;12.80;99.90;;;;;;5490836;26;20455;-55
2024/04/11 06:25:54;;;;;;;3.55;1.98;;;12.80;99.90;;;;;;5490967;26;19994;-55
2024/04/11 06:28:19;;;;;;;2.95;1.67;;;12.80;99.90;;;;;;5490697;26;19998;-55
2024/04/11 06:30:49;;;;;;;6.40;3.05;;;12.80;99.90;;;;;;5490996;26;20462;-54
2024/04/11 06:33:18;;;;;;;4.53;2.22;;;12.80;99.90;;;;;;5490960;26;20084;-56
2024/04/11 06:35:47;;;;;;;11.70;1.92;;;12.80;99.90;;;;;;5490693;26;19998;-54
2024/04/11 06:38:16;;;;;;;9.50;2.47;;;12.80;99.90;;;;;;5489040;26;20526;-55
2024/04/11 06:40:45;;;;;;;9.30;2.67;;;12.70;99.90;;;;;;5490544;26;19998;-52
2024/04/11 06:43:16;;;;;;;13.38;2.55;;;12.80;99.90;;;;;;5490592;26;19994;-50
2024/04/11 06:45:44;;;;;;;5.90;2.47;;;12.80;99.90;;;;;;5459964;26;20327;-54
2024/04/11 06:48:10;;;;;;;6.75;2.42;;;12.90;99.90;;;;;;5490667;26;20063;-57
2024/04/11 06:50:36;;;;;;;6.22;2.20;;;12.90;99.90;;;;;;5490203;26;20005;-54
2024/04/11 06:53:05;;;;;;;7.07;2.05;;;12.90;99.90;;;;;;5490634;26;20522;-69
2024/04/11 06:55:31;;;;;;;8.60;2.53;;;13.00;99.90;;;;;;5488856;26;19994;-54
2024/04/11 06:57:57;;;;;;;6.30;2.47;;;12.90;99.90;;;;;;5490376;26;20013;-58
2024/04/11 07:00:35;;;;;;;10.05;3.90;;;12.90;99.90;;;;;;5490401;26;20419;-54
2024/04/11 07:03:16;;;;;;;5.60;2.08;;;13.00;99.90;;;;;;5453953;26;20010;-59
2024/04/11 07:06:16;;;;;;;5.97;2.60;;;13.00;99.90;;;;;;5457191;26;20010;-59
2024/04/11 07:08:43;;;;;;;4.68;2.53;;;13.00;99.90;;;;;;5490327;26;20003;-55
2024/04/11 07:11:27;;;;;;;4.65;2.22;;;12.90;99.90;;;;;;5490104;26;19995;-51
2024/04/11 07:14:05;;;;;;;8.75;2.00;;;13.00;99.90;;;;;;5490491;26;20434;-52
2024/04/11 07:16:32;;;;;;;5.22;2.67;;;12.90;99.90;;;;;;5488476;26;20083;-52
2024/04/11 07:18:58;;;;;;;5.97;2.30;;;12.90;99.90;;;;;;5489846;26;20453;-55
2024/04/11 07:21:26;;;;;;;9.70;2.25;;;12.90;99.90;;;;;;5490121;26;19994;-55
2024/04/11 07:23:57;;;;;;;5.80;2.40;;;13.00;99.90;;;;;;5490064;26;20030;-55
2024/04/11 07:26:30;;;;;;;10.40;2.30;;;13.00;99.90;;;;;;5490328;26;20061;-54
2024/04/11 07:29:01;;;;;;;8.90;2.45;;;13.00;99.90;;;;;;5490324;26;20006;-55
2024/04/11 07:31:28;;;;;;;10.02;2.78;;;13.00;99.90;;;;;;5489988;26;20029;-56
2024/04/11 07:33:55;;;;;;;8.20;1.88;;;13.00;99.90;;;;;;5489986;26;20075;-53
2024/04/11 07:36:22;;;;;;;3.40;2.72;;;13.10;99.90;;;;;;5481414;26;20327;-53
2024/04/11 07:38:48;;;;;;;9.85;2.38;;;13.10;99.90;;;;;;5489545;26;20523;-52
2024/04/11 07:41:18;;;;;;;5.38;2.30;;;13.00;99.90;;;;;;5489817;26;19994;-55
2024/04/11 07:43:51;;;;;;;3.83;2.17;;;13.00;99.90;;;;;;5489540;26;20010;-51
2024/04/11 07:46:22;;;;;;;12.77;2.50;;;13.00;99.90;;;;;;5489923;26;20351;-52
2024/04/11 07:48:48;;;;;;;7.32;2.45;;;13.10;99.90;;;;;;5487500;26;20010;-53
2024/04/11 07:51:15;;;;;;;9.63;2.08;;;13.10;99.90;;;;;;5489682;26;20477;-55
2024/04/11 07:53:43;;;;;;;4.35;1.83;;;13.10;99.90;;;;;;5489413;26;20006;-53
2024/04/11 07:56:09;;;;;;;;;;;13.20;99.90;;;;;;5490345;26;20343;-54
2024/04/11 07:58:35;;;;;;;10.75;3.10;;;13.20;99.90;;;;;;5483135;26;19925;-51
2024/04/11 08:01:02;;;;;;;6.03;2.70;;;13.20;99.90;;;;;;5453083;26;19995;-54
2024/04/11 08:03:28;;;;;;;8.35;2.50;;;13.20;99.90;;;;;;5452828;26;20001;-51
2024/04/11 08:05:54;;;;;;;5.68;2.35;;;13.20;99.90;;;;;;5475466;26;20005;-38
2024/04/11 08:08:20;;;;;;;7.10;2.67;;;13.20;99.90;;;;;;5489116;26;19998;-43
2024/04/11 08:10:48;;;;;;;5.38;3.10;;;13.30;99.90;;;;;;5489263;26;20058;-42
2024/04/11 08:13:14;;;;;;;6.65;2.60;;;13.30;99.90;;;;;;5489497;26;19990;-43
2024/04/11 08:15:43;;;;;;;15.88;4.07;;;13.30;99.90;;;;;;5487016;26;20026;-42
2024/04/11 08:18:09;;;;;;;5.30;3.13;;;13.30;99.90;;;;;;5489216;26;20391;-39
2024/04/11 08:20:35;;;;;;;6.28;3.17;;;13.30;99.90;;;;;;5473817;26;20006;-40
2024/04/11 08:23:01;;;;;;;16.52;4.25;;;13.40;99.90;;;;;;5488717;26;20071;-41
2024/04/11 08:25:27;;;;;;;7.03;3.17;;;13.40;99.90;;;;;;5488315;26;20031;-38
2024/04/11 08:27:54;;;;;;;11.13;3.47;;;13.40;99.90;;;;;;5489142;26;20359;-37
2024/04/11 08:30:20;;;;;;;7.60;4.38;;;13.40;99.90;;;;;;5489138;26;20008;-40
2024/04/11 08:32:46;;;;;;;9.10;3.45;;;13.50;99.90;;;;;;5489491;26;20443;-38
2024/04/11 08:35:20;;;;;;;9.38;3.97;;;13.50;99.90;;;;;;5488717;26;21883;-40
2024/04/11 08:37:47;;;;;;;6.68;3.20;;;13.50;99.90;;;;;;5486969;26;20002;-38
2024/04/11 08:40:13;;;;;;;10.50;3.58;;;13.50;99.90;;;;;;5488853;26;20048;-51
2024/04/11 08:42:42;;;;;;;9.68;4.40;;;13.50;99.90;;;;;;5489060;26;20006;-45
2024/04/11 08:45:09;;;;;;;5.28;3.88;;;13.50;99.90;;;;;;5488840;26;20070;-42
2024/04/11 08:47:35;;;;;;;8.60;3.20;;;13.60;99.90;;;;;;5488736;26;20010;-42
2024/04/11 08:50:05;;;;;;;15.00;4.40;;;13.60;99.90;;;;;;5486675;26;20439;-39
2024/04/11 08:52:34;;;;;;;6.32;4.10;;;13.60;99.90;;;;;;5486936;26;20356;-39
2024/04/11 08:55:00;;;;;;;9.60;4.22;;;13.60;99.90;;;;;;5488917;26;20074;-43
2024/04/11 08:57:27;;;;;;;6.97;4.07;;;13.60;99.90;;;;;;5488530;26;20463;-38
2024/04/11 08:59:54;;;;;;;11.20;4.20;;;13.60;99.90;;;;;;5488463;26;20006;-51
2024/04/11 09:02:20;;;;;;;8.30;4.82;;;13.70;99.90;;;;;;5488414;26;20030;-45
2024/04/11 09:04:46;;;;;;;7.00;3.63;;;13.70;99.90;;;;;;5488881;26;20013;-39
2024/04/11 09:07:21;;;;;;;7.75;4.35;;;13.70;99.90;;;;;;5488853;26;20315;-40
2024/04/11 09:09:50;;;;;;;9.90;3.97;;;13.70;99.90;;;;;;5488798;26;19994;-38
2024/04/11 09:12:22;;;;;;;7.95;4.30;;;13.70;99.90;;;;;;5488628;26;20012;-40
2024/04/11 09:14:48;;;;;;;9.60;4.43;;;13.80;99.90;;;;;;5488590;26;20047;-52
2024/04/11 09:17:14;;;;;;;11.90;5.40;;;13.80;99.90;;;;;;5488274;26;20365;-54
2024/04/11 09:19:45;;;;;;;12.52;4.88;;;13.70;99.90;;;;;;5488262;26;20010;-52
2024/04/11 09:22:21;;;;;;;12.45;5.22;;;13.70;99.90;;;;;;5468572;26;20324;-53
2024/04/11 09:24:47;;;;;;;10.45;5.45;;;13.80;99.90;;;;;;5488247;26;20006;-53
2024/04/11 09:27:16;;;;;;;9.82;5.60;;;13.80;99.90;;;;;;5506367;26;20341;-52
2024/04/11 09:29:43;;;;;;;11.88;5.47;;;13.80;99.90;;;;;;5497060;26;20017;-53
2024/04/11 09:32:13;;;;;;;17.85;5.57;;;13.90;99.90;;;;;;5488420;26;19994;-54
2024/04/11 09:34:39;;;;;;;7.63;4.80;;;13.90;99.90;;;;;;5488030;26;19998;-53
2024/04/11 09:37:14;;;;;;;10.55;5.75;;;14.00;99.90;;;;;;5491531;26;20492;-53
2024/04/11 09:39:46;;;;;;;11.98;6.18;;;14.10;99.90;;;;;;5491619;26;19998;-55
2024/04/11 09:42:19;;;;;;;11.65;5.70;;;14.20;99.90;;;;;;5491626;26;20066;-49
2024/04/11 09:44:47;;;;;;;12.80;5.05;;;14.30;99.90;;;;;;5491601;26;20004;-55
2024/04/11 09:47:18;;;;;;;10.40;5.65;;;14.30;99.90;;;;;;5491517;26;20383;-52
2024/04/11 09:49:59;;;;;;;11.27;5.70;;;14.30;99.90;;;;;;5489409;26;19998;-53
2024/04/11 09:52:27;;;;;;;10.88;6.40;;;14.30;99.90;;;;;;5491303;26;20368;-55
2024/04/11 09:55:02;;;;;;;12.35;6.65;;;14.30;99.90;;;;;;5489415;26;20039;-53
2024/04/11 09:57:29;;;;;;;10.13;5.88;;;14.30;99.90;;;;;;5491138;26;20330;-54
2024/04/11 09:59:55;;;;;;;13.57;6.60;;;14.30;99.90;;;;;;5491139;26;19998;-53
2024/04/11 10:02:24;;;;;;;15.68;6.47;;;14.20;99.90;;;;;;5490990;26;20018;-52
2024/04/11 10:04:57;;;;;;;15.95;7.03;;;14.40;99.90;;;;;;5491406;26;19998;-53
2024/04/11 10:07:25;;;;;;;13.60;6.13;;;14.40;99.90;;;;;;5491211;26;20006;-51
2024/04/11 10:09:52;;;;;;;;;;;14.40;99.90;;;;;;5491681;26;20515;-53
2024/04/11 10:12:21;;;;;;;;;;;14.30;99.90;;;;;;5491722;26;19936;-52
2024/04/11 10:14:51;;;;;;;10.23;6.32;;;14.30;99.90;;;;;;5491241;26;20405;-55
2024/04/11 10:17:17;;;;;;;10.20;6.32;;;14.40;99.90;;;;;;5506670;26;20476;-53
2024/04/11 10:19:43;;;;;;;9.02;6.50;;;14.40;99.90;;;;;;5467862;26;20007;-53
2024/04/11 10:22:15;;;;;;;9.32;6.22;;;14.50;99.90;;;;;;5466076;26;20062;-56
2024/04/11 10:24:44;;;;;;;10.73;6.32;;;14.50;99.90;;;;;;5491014;26;20454;-53
2024/04/11 10:27:18;;;;;;;8.60;5.78;;;14.50;99.90;;;;;;5490883;26;19994;-53
2024/04/11 10:29:48;;;;;;;9.93;5.53;;;14.50;99.90;;;;;;5488705;26;20066;-49
2024/04/11 10:32:26;;;;;;;11.68;5.55;;;14.40;99.90;;;;;;5491058;26;20010;-61
2024/04/11 10:34:58;;;;;;;10.18;5.82;;;14.50;99.90;;;;;;5490804;26;20024;-57
2024/04/11 10:37:26;;;;;;;15.38;6.82;;;14.50;99.90;;;;;;5490782;26;19994;-52
2024/04/11 10:39:58;;;;;;;;;;;14.60;99.90;;;;;;5491109;26;20021;-54
2024/04/11 10:42:39;;;;;;;12.35;6.32;;;14.70;99.90;;;;;;5490728;26;19935;-52
2024/04/11 10:45:17;;;;;;;12.07;6.75;;;14.70;99.90;;;;;;5489081;26;20447;-56
2024/04/11 10:47:44;;;;;;;11.80;5.90;;;14.70;99.90;;;;;;5487655;26;20466;-51
2024/04/11 10:50:13;;;;;;;12.07;6.60;;;14.70;99.90;;;;;;5490873;26;20454;-58
2024/04/11 10:52:45;;;;;;;11.63;6.53;;;14.70;99.90;;;;;;5490578;26;20458;-65
2024/04/11 10:55:13;;;;;;;15.15;7.47;;;14.80;99.90;;;;;;5488795;26;19998;-63
2024/04/11 10:57:42;;;;;;;11.95;6.47;;;14.80;99.90;;;;;;5490960;26;19990;-54
2024/04/11 11:00:10;;;;;;;13.27;7.22;;;14.90;99.90;;;;;;5490657;26;20450;-53
2024/04/11 11:02:38;;;;;;;16.77;8.20;;;14.90;99.90;;;;;;5490383;26;19998;-52
2024/04/11 11:05:07;;;;;;;10.25;6.30;;;14.90;99.90;;;;;;5490465;26;20395;-49
2024/04/11 11:07:35;;;;;;;10.25;6.00;;;14.90;99.90;;;;;;5490451;26;20002;-54
2024/04/11 11:10:11;;;;;;;10.75;5.68;;;15.00;99.90;;;;;;5487359;26;20038;-54
2024/04/11 11:12:37;;;;;;;9.85;5.80;;;15.00;99.90;;;;;;5490012;26;20030;-54
2024/04/11 11:15:03;;;;;;;8.07;6.03;;;15.00;99.90;;;;;;5490277;26;20458;-53
2024/04/11 11:17:31;;;;;;;7.50;5.32;;;15.00;99.90;;;;;;5490188;26;19994;-54
2024/04/11 11:19:58;;;;;;;14.23;5.82;;;15.00;99.90;;;;;;5465076;26;19991;-52
2024/04/11 11:22:33;;;;;;;11.80;5.60;;;15.00;99.90;;;;;;5453732;26;19995;-53
2024/04/11 11:25:00;;;;;;;13.60;5.72;;;15.10;99.90;;;;;;5453777;26;19998;-55
2024/04/11 11:27:31;;;;;;;11.75;5.97;;;15.10;99.90;;;;;;5453803;26;20072;-52
2024/04/11 11:29:57;;;;;;;30.65;6.03;;;15.20;99.90;;;;;;5461179;26;20013;-54
2024/04/11 11:32:25;;;;;;;8.35;6.25;;;15.20;99.90;;;;;;5489994;26;20455;-53
2024/04/11 11:34:52;;;;;;;12.20;5.35;;;15.20;99.90;;;;;;5490002;26;20009;-39
2024/04/11 11:37:23;;;;;;;11.50;4.85;;;15.30;99.90;;;;;;5489604;26;20004;-40
2024/04/11 11:39:55;;;;;;;4.43;3.83;;;15.30;99.90;;;;;;5490118;26;20062;-39
2024/04/11 11:42:26;;;;;;;7.18;4.65;;;15.40;99.90;;;;;;5467602;26;20471;-39
2024/04/11 11:47:34;;;;;;;6.43;4.05;;;15.50;99.90;;;;;;5467988;26;20059;-38
2024/04/11 11:50:16;;;;;;;7.95;4.97;;;15.40;99.90;;;;;;5489739;26;20442;-40
2024/04/11 11:52:43;;;;;;;6.43;4.97;;;15.50;99.90;;;;;;5487819;26;20446;-41
2024/04/11 11:55:16;;;;;;;10.30;6.43;;;15.30;99.90;;;;;;5489822;26;20009;-40
2024/04/11 11:57:42;;;;;;;8.63;4.85;;;15.30;99.90;;;;;;5489453;26;20439;-43
2024/04/11 12:00:23;;;;;;;5.13;4.57;;;15.30;99.90;;;;;;5489218;26;20396;-38
2024/04/11 12:02:50;;;;;;;6.53;4.60;;;15.40;99.90;;;;;;5489614;26;20473;-43
2024/04/11 12:05:23;;;;;;;;;;;15.50;99.90;;;;;;5490312;26;20342;-41
2024/04/11 12:07:52;;;;;;;8.25;5.40;;;15.60;99.90;;;;;;5489415;26;19931;-39
2024/04/11 12:10:19;;;;;;;10.55;4.93;;;15.70;99.90;;;;;;5489373;26;19998;-39
2024/04/11 12:12:48;;;;;;;10.83;6.10;;;15.70;99.90;;;;;;5489744;26;20376;-38
2024/04/11 12:15:14;;;;;;;10.55;5.55;;;15.70;99.90;;;;;;5489567;26;20012;-39
2024/04/11 12:17:40;;;;;;;12.80;5.88;;;15.80;99.90;;;;;;5487229;26;19994;-40
2024/04/11 12:20:06;;;;;;;8.65;5.55;;;15.80;99.90;;;;;;5489115;26;20067;-40
2024/04/11 12:22:35;;;;;;;12.25;5.40;;;15.90;99.90;;;;;;5488094;26;20091;-40
2024/04/11 12:25:02;;;;;;;7.50;5.25;;;16.00;99.90;;;;;;5489119;26;19998;-42
2024/04/11 12:27:28;;;;;;;11.82;5.95;;;16.10;99.90;;;;;;5489284;26;20332;-40
2024/04/11 12:29:59;;;;;;;9.55;5.55;;;16.10;99.90;;;;;;5489237;26;19994;-39
2024/04/11 12:32:25;;;;;;;7.38;4.85;;;16.10;99.90;;;;;;5487479;26;20462;-39
2024/04/11 12:34:55;;;;;;;7.90;5.30;;;16.10;99.90;;;;;;5489106;26;19998;-70
2024/04/11 12:37:24;;;;;;;6.25;4.72;;;16.00;99.90;;;;;;5489137;26;20009;-44
2024/04/11 12:39:54;;;;;;;7.07;5.05;;;16.00;99.90;;;;;;5488762;26;20075;-47
2024/04/11 12:42:22;;;;;;;10.60;5.78;;;16.10;99.90;;;;;;5488850;26;20478;-43
2024/04/11 12:44:48;;;;;;;10.85;5.78;;;16.00;99.90;;;;;;5488945;26;20350;-39
2024/04/11 12:47:14;;;;;;;11.55;5.65;;;16.10;99.90;;;;;;5489177;26;20401;-40
2024/04/11 12:49:49;;;;;;;11.57;5.57;;;16.00;99.90;;;;;;5488818;26;19998;-38
2024/04/11 12:52:22;;;;;;;9.15;5.10;;;16.00;99.90;;;;;;5489046;26;20009;-43
2024/04/11 12:54:58;;;;;;;7.60;3.67;;;16.00;99.90;;;;;;5488367;26;20078;-39